Time;durP1;ratioP1;P1;durP2;ratioP2;P2;SDS_P1;SDS_P2;PMS_P1;PMS_P2;Temp;Humidity;BMP_temperature;BMP_pressure;BME280_temperature;BME280_humidity;BME280_pressure;Samples;Min_cycle;Max_cycle;Signal;HPM_P1;HPM_P2
2023/05/25 00:00:20;;;;;;;17.73;9.23;;;;;;;;;;5080284;28;20096;-81
2023/05/25 00:02:45;;;;;;;15.05;9.10;;;;;;;;;;5080314;28;20040;-80
2023/05/25 00:05:11;;;;;;;14.88;9.20;;;;;;;;;;5079987;28;20032;-82
2023/05/25 00:07:37;;;;;;;14.30;9.30;;;;;;;;;;5079852;28;20036;-82
2023/05/25 00:10:04;;;;;;;13.18;8.73;;;;;;;;;;5079718;28;20036;-78
2023/05/25 00:12:30;;;;;;;15.32;8.73;;;;;;;;;;5079017;28;20334;-82
2023/05/25 00:14:55;;;;;;;17.50;9.07;;;;;;;;;;5080046;28;20348;-83
2023/05/25 00:17:22;;;;;;;16.17;9.23;;;;;;;;;;5080106;28;20243;-82
2023/05/25 00:19:48;;;;;;;16.05;8.93;;;;;;;;;;5079871;28;20041;-80
2023/05/25 00:22:13;;;;;;;14.80;8.55;;;;;;;;;;5079476;28;20030;-78
2023/05/25 00:24:39;;;;;;;13.00;8.45;;;;;;;;;;5079931;28;20032;-83
2023/05/25 00:27:06;;;;;;;13.77;8.77;;;;;;;;;;5069358;28;20154;-78
2023/05/25 00:29:31;;;;;;;14.77;8.43;;;;;;;;;;5066167;28;20051;-78
2023/05/25 00:31:57;;;;;;;12.57;7.85;;;;;;;;;;5068391;28;20028;-78
2023/05/25 00:34:22;;;;;;;13.65;8.85;;;;;;;;;;5068159;28;20033;-80
2023/05/25 00:36:48;;;;;;;16.55;9.13;;;;;;;;;;5066250;28;20124;-88
2023/05/25 00:39:20;;;;;;;13.30;8.52;;;;;;;;;;5068323;28;20609;-84
2023/05/25 00:41:47;;;;;;;20.70;9.40;;;;;;;;;;5068195;28;20115;-83
2023/05/25 00:44:14;;;;;;;15.10;8.60;;;;;;;;;;5068163;28;20021;-81
2023/05/25 00:46:45;;;;;;;16.23;8.57;;;;;;;;;;5068198;28;20029;-79
2023/05/25 00:49:13;;;;;;;14.20;8.35;;;;;;;;;;5068091;28;20150;-83
2023/05/25 00:51:40;;;;;;;17.90;8.10;;;;;;;;;;5067157;28;20026;-81
2023/05/25 00:54:06;;;;;;;13.10;8.52;;;;;;;;;;5068090;28;20397;-83
2023/05/25 00:56:37;;;;;;;14.23;8.23;;;;;;;;;;5068162;28;20107;-78
2023/05/25 00:59:05;;;;;;;12.77;8.77;;;;;;;;;;5068055;28;20044;-80
2023/05/25 01:01:38;;;;;;;14.70;8.75;;;;;;;;;;5068207;28;20474;-79
2023/05/25 01:04:06;;;;;;;15.55;8.75;;;;;;;;;;5068073;28;20040;-86
2023/05/25 01:06:32;;;;;;;13.60;8.10;;;;;;;;;;5067452;28;20035;-82
2023/05/25 01:09:01;;;;;;;14.05;8.77;;;;;;;;;;5068044;28;20059;-78
2023/05/25 01:11:31;;;;;;;17.08;9.15;;;;;;;;;;5067760;28;20515;-80
2023/05/25 01:13:57;;;;;;;14.85;9.00;;;;;;;;;;5067965;28;20115;-87
2023/05/25 01:16:24;;;;;;;15.10;9.27;;;;;;;;;;5067981;28;20016;-83
2023/05/25 01:18:51;;;;;;;14.50;9.43;;;;;;;;;;5068050;28;20024;-84
2023/05/25 01:21:22;;;;;;;16.92;8.95;;;;;;;;;;5070920;28;20031;-85
2023/05/25 01:24:31;;;;;;;13.90;8.90;;;;;;;;;;5071501;28;20032;-85
2023/05/25 01:27:18;;;;;;;15.70;8.38;;;;;;;;;;5071272;28;20059;-85
2023/05/25 01:29:45;;;;;;;15.70;9.35;;;;;;;;;;5071499;28;20479;-83
2023/05/25 01:32:13;;;;;;;14.85;9.75;;;;;;;;;;5071365;28;20066;-84
2023/05/25 01:34:43;;;;;;;17.83;9.23;;;;;;;;;;5071643;28;20047;-80
2023/05/25 01:37:08;;;;;;;17.20;9.95;;;;;;;;;;5070780;28;20086;-84
2023/05/25 01:39:34;;;;;;;14.60;9.18;;;;;;;;;;5071307;28;20028;-81
2023/05/25 01:42:00;;;;;;;15.35;9.00;;;;;;;;;;5071177;28;20035;-85
2023/05/25 01:44:26;;;;;;;15.68;8.60;;;;;;;;;;5070801;28;20025;-82
2023/05/25 01:47:02;;;;;;;16.95;9.13;;;;;;;;;;5070519;28;20083;-81
2023/05/25 01:49:44;;;;;;;15.55;8.65;;;;;;;;;;5071102;28;20024;-86
2023/05/25 01:52:22;;;;;;;15.40;8.80;;;;;;;;;;5070428;28;20021;-86
2023/05/25 01:54:54;;;;;;;16.00;8.80;;;;;;;;;;5071242;28;20537;-82
2023/05/25 01:57:20;;;;;;;14.60;8.70;;;;;;;;;;5070744;28;20040;-82
2023/05/25 01:59:48;;;;;;;17.80;9.18;;;;;;;;;;5070997;28;20531;-80
2023/05/25 02:02:16;;;;;;;15.85;8.63;;;;;;;;;;5070373;28;20074;-86
2023/05/25 02:04:45;;;;;;;15.75;8.70;;;;;;;;;;5069253;28;20045;-85
2023/05/25 02:07:11;;;;;;;15.80;8.77;;;;;;;;;;5069077;28;20028;-78
2023/05/25 02:09:36;;;;;;;18.02;9.90;;;;;;;;;;5070689;28;20039;-81
2023/05/25 02:12:02;;;;;;;17.45;9.35;;;;;;;;;;5069118;28;20032;-82
2023/05/25 02:14:28;;;;;;;14.60;9.50;;;;;;;;;;5070829;28;20039;-82
2023/05/25 02:16:53;;;;;;;16.40;9.13;;;;;;;;;;5070286;28;20035;-80
2023/05/25 02:19:19;;;;;;;15.93;9.10;;;;;;;;;;5070453;28;20066;-80
2023/05/25 02:21:45;;;;;;;14.65;9.05;;;;;;;;;;5069820;28;20032;-80
2023/05/25 02:24:10;;;;;;;17.83;9.68;;;;;;;;;;5070503;28;20028;-83
2023/05/25 02:26:37;;;;;;;14.95;8.90;;;;;;;;;;5070452;28;20036;-83
2023/05/25 02:29:04;;;;;;;15.13;9.50;;;;;;;;;;5070638;28;20078;-83
2023/05/25 02:31:30;;;;;;;15.77;9.15;;;;;;;;;;5069624;28;20043;-82
2023/05/25 02:33:55;;;;;;;21.33;9.95;;;;;;;;;;5070291;28;20488;-83
2023/05/25 02:36:21;;;;;;;17.80;9.43;;;;;;;;;;5069843;28;20029;-83
2023/05/25 02:38:48;;;;;;;17.73;10.15;;;;;;;;;;5070185;28;20077;-82
2023/05/25 02:41:20;;;;;;;16.20;9.88;;;;;;;;;;5069954;28;20029;-80
2023/05/25 02:43:46;;;;;;;19.92;9.68;;;;;;;;;;5070290;28;20020;-84
2023/05/25 02:46:11;;;;;;;16.10;10.10;;;;;;;;;;5068164;28;20094;-78
2023/05/25 02:48:36;;;;;;;19.65;9.30;;;;;;;;;;5070154;28;20036;-84
2023/05/25 02:51:02;;;;;;;20.38;9.68;;;;;;;;;;5070272;28;20029;-83
2023/05/25 02:53:28;;;;;;;16.05;9.32;;;;;;;;;;5069167;28;20628;-80
2023/05/25 02:55:53;;;;;;;19.38;9.70;;;;;;;;;;5069937;28;20037;-84
2023/05/25 02:58:19;;;;;;;17.38;9.93;;;;;;;;;;5069669;28;20027;-79
2023/05/25 03:00:45;;;;;;;20.38;10.02;;;;;;;;;;5069567;28;20039;-84
2023/05/25 03:03:11;;;;;;;13.93;9.20;;;;;;;;;;5069432;28;20107;-78
2023/05/25 03:05:37;;;;;;;15.45;9.75;;;;;;;;;;5069674;28;20697;-79
2023/05/25 03:08:03;;;;;;;18.90;9.75;;;;;;;;;;5069062;28;20726;-78
2023/05/25 03:10:28;;;;;;;20.40;10.30;;;;;;;;;;5069326;28;20056;-78
2023/05/25 03:12:53;;;;;;;16.65;9.20;;;;;;;;;;5069280;28;20027;-83
2023/05/25 03:15:19;;;;;;;19.63;9.45;;;;;;;;;;5069142;28;20098;-79
2023/05/25 03:17:44;;;;;;;14.00;9.13;;;;;;;;;;5069275;28;20012;-81
2023/05/25 03:20:10;;;;;;;16.65;9.45;;;;;;;;;;5069264;28;20515;-80
2023/05/25 03:22:36;;;;;;;16.05;8.70;;;;;;;;;;5069006;28;20090;-80
2023/05/25 03:25:02;;;;;;;12.98;9.15;;;;;;;;;;5069394;28;20473;-82
2023/05/25 03:27:27;;;;;;;17.20;10.20;;;;;;;;;;5069153;28;20021;-83
2023/05/25 03:29:53;;;;;;;21.08;10.20;;;;;;;;;;5069142;28;20028;-81
2023/05/25 03:32:18;;;;;;;18.05;9.55;;;;;;;;;;5068907;28;20034;-85
2023/05/25 03:34:44;;;;;;;20.08;10.57;;;;;;;;;;5069202;28;20021;-82
2023/05/25 03:37:09;;;;;;;17.88;10.25;;;;;;;;;;5068503;28;20596;-83
2023/05/25 03:39:35;;;;;;;16.50;9.25;;;;;;;;;;5069312;28;20050;-81
2023/05/25 03:42:01;;;;;;;20.30;9.82;;;;;;;;;;5068854;28;20525;-80
2023/05/25 03:44:27;;;;;;;16.77;9.35;;;;;;;;;;5067921;28;20058;-84
2023/05/25 03:46:52;;;;;;;15.52;9.68;;;;;;;;;;5068645;28;20637;-81
2023/05/25 03:49:20;;;;;;;17.73;10.00;;;;;;;;;;5068657;28;20051;-80
2023/05/25 03:51:45;;;;;;;17.25;9.57;;;;;;;;;;5068320;28;20028;-81
2023/05/25 03:54:11;;;;;;;15.52;9.00;;;;;;;;;;5068580;28;20036;-79
2023/05/25 03:56:36;;;;;;;16.42;9.45;;;;;;;;;;5069121;28;20028;-80
2023/05/25 03:59:02;;;;;;;19.90;9.25;;;;;;;;;;5068573;28;20120;-84
2023/05/25 04:01:28;;;;;;;16.42;8.50;;;;;;;;;;5068680;28;20070;-85
2023/05/25 04:03:55;;;;;;;18.45;9.20;;;;;;;;;;5068280;28;20095;-80
2023/05/25 04:06:24;;;;;;;19.05;8.95;;;;;;;;;;5068178;28;20533;-81
2023/05/25 04:08:52;;;;;;;18.30;9.20;;;;;;;;;;5068398;28;20021;-79
2023/05/25 04:11:18;;;;;;;17.15;9.20;;;;;;;;;;5068620;28;20062;-83
2023/05/25 04:13:44;;;;;;;16.90;9.13;;;;;;;;;;5068534;28;20445;-81
2023/05/25 04:16:11;;;;;;;17.98;9.50;;;;;;;;;;5068229;28;20052;-82
2023/05/25 04:18:36;;;;;;;16.73;8.98;;;;;;;;;;5068566;28;20040;-82
2023/05/25 04:21:02;;;;;;;17.67;9.82;;;;;;;;;;5068272;28;20136;-84
2023/05/25 04:23:27;;;;;;;15.00;9.02;;;;;;;;;;5067756;28;20055;-82
2023/05/25 04:25:53;;;;;;;17.25;9.15;;;;;;;;;;5068380;28;20082;-81
2023/05/25 04:28:18;;;;;;;17.38;9.30;;;;;;;;;;5068390;28;20052;-80
2023/05/25 04:30:44;;;;;;;15.35;9.02;;;;;;;;;;5068775;28;20454;-80
2023/05/25 04:33:10;;;;;;;14.52;8.70;;;;;;;;;;5068026;28;20519;-79
2023/05/25 04:35:36;;;;;;;19.40;9.35;;;;;;;;;;5068455;28;20027;-81
2023/05/25 04:38:03;;;;;;;18.95;9.68;;;;;;;;;;5066733;28;20119;-83
2023/05/25 04:40:32;;;;;;;15.02;9.18;;;;;;;;;;5068089;28;20108;-82
2023/05/25 04:42:58;;;;;;;17.23;8.85;;;;;;;;;;5068214;28;20046;-82
2023/05/25 04:45:23;;;;;;;17.42;8.43;;;;;;;;;;5068210;28;20360;-80
2023/05/25 04:47:49;;;;;;;15.73;9.63;;;;;;;;;;5068123;28;20506;-80
2023/05/25 04:50:15;;;;;;;17.17;9.93;;;;;;;;;;5068386;28;20597;-83
2023/05/25 04:52:40;;;;;;;17.70;10.13;;;;;;;;;;5067968;28;20024;-84
2023/05/25 04:55:06;;;;;;;22.27;10.90;;;;;;;;;;5069838;28;20059;-81
2023/05/25 04:57:31;;;;;;;23.70;10.18;;;;;;;;;;5072007;28;20093;-82
2023/05/25 04:59:57;;;;;;;21.17;9.77;;;;;;;;;;5071728;28;20032;-85
2023/05/25 05:02:25;;;;;;;21.98;9.82;;;;;;;;;;5071934;28;20048;-80
2023/05/25 05:04:52;;;;;;;20.90;10.25;;;;;;;;;;5071577;28;20059;-81
2023/05/25 05:07:19;;;;;;;16.55;8.93;;;;;;;;;;5070118;28;20031;-84
2023/05/25 05:09:45;;;;;;;18.10;9.50;;;;;;;;;;5071849;28;20044;-81
2023/05/25 05:12:10;;;;;;;20.88;9.90;;;;;;;;;;5071714;28;20558;-80
2023/05/25 05:14:35;;;;;;;18.10;10.18;;;;;;;;;;5071337;28;20073;-84
2023/05/25 05:17:02;;;;;;;21.35;9.23;;;;;;;;;;5071756;28;20013;-84
2023/05/25 05:19:31;;;;;;;19.70;9.07;;;;;;;;;;5070286;28;20017;-84
2023/05/25 05:21:57;;;;;;;17.13;9.07;;;;;;;;;;5071117;28;20029;-81
2023/05/25 05:24:23;;;;;;;17.50;8.68;;;;;;;;;;5071644;28;20100;-82
2023/05/25 05:26:48;;;;;;;20.23;9.23;;;;;;;;;;5070633;28;20033;-80
2023/05/25 05:29:15;;;;;;;21.85;9.10;;;;;;;;;;5071577;28;20023;-83
2023/05/25 05:31:41;;;;;;;17.88;9.25;;;;;;;;;;5071454;28;20032;-84
2023/05/25 05:34:06;;;;;;;19.48;8.88;;;;;;;;;;5071213;28;20024;-83
2023/05/25 05:36:32;;;;;;;17.17;9.13;;;;;;;;;;5070974;28;20043;-83
2023/05/25 05:38:58;;;;;;;19.20;9.30;;;;;;;;;;5071237;28;20017;-80
2023/05/25 05:41:23;;;;;;;17.90;9.13;;;;;;;;;;5071308;28;20021;-82
2023/05/25 05:43:49;;;;;;;18.83;9.05;;;;;;;;;;5071278;28;20021;-81
2023/05/25 05:46:14;;;;;;;15.80;8.55;;;;;;;;;;5070999;28;20392;-81
2023/05/25 05:48:40;;;;;;;24.05;9.55;;;;;;;;;;5071261;28;20099;-83
2023/05/25 05:51:06;;;;;;;16.02;9.13;;;;;;;;;;5071259;28;20025;-80
2023/05/25 05:53:34;;;;;;;19.23;9.00;;;;;;;;;;5070384;28;20591;-79
2023/05/25 05:55:59;;;;;;;17.42;8.77;;;;;;;;;;5071226;28;20602;-80
2023/05/25 05:58:28;;;;;;;17.88;8.80;;;;;;;;;;5071261;28;20028;-85
2023/05/25 06:00:55;;;;;;;20.08;8.52;;;;;;;;;;5070793;28;20025;-85
2023/05/25 06:03:21;;;;;;;18.38;8.95;;;;;;;;;;5070619;28;20587;-79
2023/05/25 06:05:46;;;;;;;14.77;7.95;;;;;;;;;;5070225;28;20071;-82
2023/05/25 06:08:12;;;;;;;16.65;7.97;;;;;;;;;;5070034;28;20055;-85
2023/05/25 06:10:39;;;;;;;18.30;8.52;;;;;;;;;;5070635;28;20389;-81
2023/05/25 06:13:06;;;;;;;15.85;7.43;;;;;;;;;;5070652;28;20025;-77
2023/05/25 06:15:32;;;;;;;13.38;7.13;;;;;;;;;;5070337;28;20028;-78
2023/05/25 06:17:57;;;;;;;15.73;7.47;;;;;;;;;;5072037;28;20538;-84
2023/05/25 06:20:23;;;;;;;14.82;7.95;;;;;;;;;;5074444;28;20033;-80
2023/05/25 06:22:48;;;;;;;13.65;6.70;;;;;;;;;;5075448;28;20063;-77
2023/05/25 06:25:15;;;;;;;18.75;7.32;;;;;;;;;;5101710;28;20016;-76
2023/05/25 06:27:41;;;;;;;13.43;7.03;;;;;;;;;;5100831;28;20035;-81
2023/05/25 06:30:07;;;;;;;19.98;6.85;;;;;;;;;;5101582;28;20047;-80
2023/05/25 06:32:32;;;;;;;19.35;6.78;;;;;;;;;;5102078;28;20024;-80
2023/05/25 06:34:57;;;;;;;13.48;7.35;;;;;;;;;;5100706;28;20405;-78
2023/05/25 06:37:23;;;;;;;14.10;7.10;;;;;;;;;;5099437;28;20028;-80
2023/05/25 06:39:48;;;;;;;15.38;6.80;;;;;;;;;;5090340;28;20058;-78
2023/05/25 06:42:13;;;;;;;13.68;6.88;;;;;;;;;;5090365;28;20026;-80
2023/05/25 06:44:39;;;;;;;15.80;7.00;;;;;;;;;;5089911;28;20025;-81
2023/05/25 06:47:05;;;;;;;18.35;7.20;;;;;;;;;;5090148;28;20023;-82
2023/05/25 06:49:31;;;;;;;12.82;6.78;;;;;;;;;;5088665;28;20028;-80
2023/05/25 06:51:56;;;;;;;14.18;6.47;;;;;;;;;;5077842;28;20099;-81
2023/05/25 06:54:22;;;;;;;13.93;6.15;;;;;;;;;;5083414;28;20021;-80
2023/05/25 06:56:48;;;;;;;12.85;6.07;;;;;;;;;;5070056;28;20016;-79
2023/05/25 06:59:13;;;;;;;17.17;6.10;;;;;;;;;;5082826;28;20020;-78
2023/05/25 07:01:39;;;;;;;15.68;6.30;;;;;;;;;;5088757;28;20069;-77
2023/05/25 07:04:05;;;;;;;14.57;6.18;;;;;;;;;;5090424;28;20069;-75
2023/05/25 07:06:31;;;;;;;11.73;5.97;;;;;;;;;;5091057;28;20136;-82
2023/05/25 07:08:57;;;;;;;15.18;5.60;;;;;;;;;;5088783;28;20645;-80
2023/05/25 07:11:22;;;;;;;12.18;5.95;;;;;;;;;;5086890;28;20020;-81
2023/05/25 07:13:48;;;;;;;12.82;5.60;;;;;;;;;;5096355;28;20036;-79
2023/05/25 07:16:13;;;;;;;12.82;5.40;;;;;;;;;;5100088;28;20047;-83
2023/05/25 07:18:39;;;;;;;11.13;5.57;;;;;;;;;;5093951;28;20095;-77
2023/05/25 07:21:08;;;;;;;11.82;5.07;;;;;;;;;;5088611;28;20024;-79
2023/05/25 07:23:34;;;;;;;14.80;6.13;;;;;;;;;;5086674;28;20414;-79
2023/05/25 07:26:00;;;;;;;13.25;5.38;;;;;;;;;;5086494;28;20073;-79
2023/05/25 07:28:25;;;;;;;11.98;5.15;;;;;;;;;;5086970;28;20368;-80
2023/05/25 07:30:50;;;;;;;13.75;6.05;;;;;;;;;;5086239;28;20031;-79
2023/05/25 07:33:16;;;;;;;11.90;5.50;;;;;;;;;;5086306;28;20085;-79
2023/05/25 07:35:41;;;;;;;10.30;5.80;;;;;;;;;;5086222;28;20112;-78
2023/05/25 07:38:06;;;;;;;15.65;5.72;;;;;;;;;;5085850;28;20471;-80
2023/05/25 07:40:32;;;;;;;12.95;5.45;;;;;;;;;;5085958;28;20112;-79
2023/05/25 07:42:57;;;;;;;12.30;5.28;;;;;;;;;;5088303;28;20016;-79
2023/05/25 07:45:22;;;;;;;13.27;5.60;;;;;;;;;;5088830;28;20092;-79
2023/05/25 07:47:48;;;;;;;10.40;5.35;;;;;;;;;;5088212;28;20399;-79
2023/05/25 07:50:14;;;;;;;11.82;5.63;;;;;;;;;;5088900;28;20024;-80
2023/05/25 07:52:40;;;;;;;9.82;4.90;;;;;;;;;;5088729;28;20073;-79
2023/05/25 07:55:06;;;;;;;15.57;5.15;;;;;;;;;;5088941;28;20047;-80
2023/05/25 07:57:32;;;;;;;9.25;4.95;;;;;;;;;;5087752;28;20379;-80
2023/05/25 07:59:58;;;;;;;10.05;4.80;;;;;;;;;;5088746;28;20024;-80
2023/05/25 08:02:23;;;;;;;12.80;5.03;;;;;;;;;;5088765;28;20436;-79
2023/05/25 08:04:48;;;;;;;10.50;5.07;;;;;;;;;;5088871;28;20036;-80
2023/05/25 08:07:14;;;;;;;12.38;5.00;;;;;;;;;;5088570;28;20062;-79
2023/05/25 08:09:39;;;;;;;12.15;5.30;;;;;;;;;;5089149;28;20074;-80
2023/05/25 08:12:05;;;;;;;9.98;4.60;;;;;;;;;;5088491;28;20031;-80
2023/05/25 08:14:30;;;;;;;14.70;5.60;;;;;;;;;;5088410;28;20140;-79
2023/05/25 08:16:55;;;;;;;9.88;4.53;;;;;;;;;;5088367;28;20024;-80
2023/05/25 08:19:21;;;;;;;12.95;4.80;;;;;;;;;;5088943;28;20038;-79
2023/05/25 08:21:46;;;;;;;9.70;4.50;;;;;;;;;;5088419;28;20027;-80
2023/05/25 08:24:12;;;;;;;11.40;4.28;;;;;;;;;;5087216;28;20024;-78
2023/05/25 08:26:37;;;;;;;10.45;4.40;;;;;;;;;;5087265;28;20475;-79
2023/05/25 08:29:06;;;;;;;7.68;4.22;;;;;;;;;;5088372;28;20024;-80
2023/05/25 08:31:31;;;;;;;12.25;4.57;;;;;;;;;;5088363;28;20028;-79
2023/05/25 08:33:58;;;;;;;9.63;4.57;;;;;;;;;;5088972;28;20027;-80
2023/05/25 08:36:25;;;;;;;8.98;3.88;;;;;;;;;;5088438;28;20020;-80
2023/05/25 08:38:50;;;;;;;12.63;4.20;;;;;;;;;;5079586;28;20017;-79
2023/05/25 08:41:16;;;;;;;11.30;4.60;;;;;;;;;;5068213;28;20040;-79
2023/05/25 08:43:41;;;;;;;12.40;4.30;;;;;;;;;;5068336;28;20031;-79
2023/05/25 08:46:08;;;;;;;11.50;4.10;;;;;;;;;;5067860;28;20040;-78
2023/05/25 08:48:35;;;;;;;14.93;4.60;;;;;;;;;;5068469;28;20021;-80
2023/05/25 08:51:07;;;;;;;10.73;4.20;;;;;;;;;;5068314;28;20056;-79
2023/05/25 08:53:38;;;;;;;11.05;3.80;;;;;;;;;;5068302;28;20027;-80
2023/05/25 08:56:12;;;;;;;;;;;;;;;;;;5068523;28;20387;-79
2023/05/25 08:59:04;;;;;;;9.23;4.10;;;;;;;;;;5068158;28;19912;-80
2023/05/25 09:01:33;;;;;;;9.55;3.58;;;;;;;;;;5067901;28;20166;-80
2023/05/25 09:04:00;;;;;;;6.45;3.42;;;;;;;;;;5067853;28;20044;-79
2023/05/25 09:06:25;;;;;;;9.75;3.55;;;;;;;;;;5066224;28;20032;-81
2023/05/25 09:08:51;;;;;;;8.90;3.45;;;;;;;;;;5068262;28;20480;-80
2023/05/25 09:11:17;;;;;;;9.80;4.18;;;;;;;;;;5068070;28;20040;-80
2023/05/25 09:13:43;;;;;;;14.45;4.28;;;;;;;;;;5067832;28;20111;-79
2023/05/25 09:16:09;;;;;;;7.75;3.35;;;;;;;;;;5067308;28;20040;-80
2023/05/25 09:18:35;;;;;;;7.50;3.40;;;;;;;;;;5068102;28;20487;-81
2023/05/25 09:21:01;;;;;;;9.95;3.40;;;;;;;;;;5067943;28;20029;-80
2023/05/25 09:23:26;;;;;;;8.30;3.45;;;;;;;;;;5067709;28;20196;-78
2023/05/25 09:25:53;;;;;;;8.02;3.38;;;;;;;;;;5067919;28;20032;-79
2023/05/25 09:28:19;;;;;;;7.95;3.30;;;;;;;;;;5066681;28;20051;-81
2023/05/25 09:30:45;;;;;;;10.35;3.60;;;;;;;;;;5068010;28;20492;-81
2023/05/25 09:33:12;;;;;;;9.48;3.38;;;;;;;;;;5067384;28;20023;-81
2023/05/25 09:35:38;;;;;;;10.30;3.22;;;;;;;;;;5067785;28;20020;-81
2023/05/25 09:38:04;;;;;;;8.73;3.17;;;;;;;;;;5067290;28;20528;-82
2023/05/25 09:40:32;;;;;;;9.43;3.15;;;;;;;;;;5067925;28;20027;-80
2023/05/25 09:42:58;;;;;;;7.78;3.28;;;;;;;;;;5070546;28;20031;-81
2023/05/25 09:45:23;;;;;;;12.00;3.45;;;;;;;;;;5071159;28;20025;-79
2023/05/25 09:47:53;;;;;;;5.53;3.08;;;;;;;;;;5070927;28;20103;-80
2023/05/25 09:50:20;;;;;;;6.22;3.20;;;;;;;;;;5071163;28;20028;-80
2023/05/25 09:52:46;;;;;;;8.88;3.30;;;;;;;;;;5070565;28;20032;-81
2023/05/25 09:55:11;;;;;;;9.40;3.22;;;;;;;;;;5071118;28;20021;-79
2023/05/25 09:57:37;;;;;;;6.60;3.08;;;;;;;;;;5069871;28;20033;-81
2023/05/25 10:00:04;;;;;;;6.57;3.00;;;;;;;;;;5071262;28;20537;-79
2023/05/25 10:02:30;;;;;;;6.45;2.88;;;;;;;;;;5070794;28;20021;-79
2023/05/25 10:04:56;;;;;;;9.38;3.33;;;;;;;;;;5070844;28;20043;-81
2023/05/25 10:07:24;;;;;;;8.65;3.20;;;;;;;;;;5069001;28;20131;-80
2023/05/25 10:09:52;;;;;;;7.15;3.10;;;;;;;;;;5070945;28;20470;-79
2023/05/25 10:12:19;;;;;;;9.80;3.10;;;;;;;;;;5070534;28;20025;-81
2023/05/25 10:14:48;;;;;;;8.30;3.05;;;;;;;;;;5070520;28;20077;-81
2023/05/25 10:17:21;;;;;;;8.45;3.45;;;;;;;;;;5070578;28;20016;-81
2023/05/25 10:19:59;;;;;;;8.07;2.95;;;;;;;;;;5070869;28;20035;-79
2023/05/25 10:22:35;;;;;;;5.03;2.63;;;;;;;;;;5070294;28;20089;-79
2023/05/25 10:25:22;;;;;;;8.93;2.72;;;;;;;;;;5070460;28;20384;-79
2023/05/25 10:28:01;;;;;;;7.05;2.85;;;;;;;;;;5070137;28;20024;-77
2023/05/25 10:30:27;;;;;;;9.23;3.08;;;;;;;;;;5070607;28;20108;-77
2023/05/25 10:32:55;;;;;;;7.40;2.97;;;;;;;;;;5070298;28;20119;-78
2023/05/25 10:35:21;;;;;;;8.88;3.15;;;;;;;;;;5070485;28;20060;-77
2023/05/25 10:37:46;;;;;;;7.07;3.15;;;;;;;;;;5069587;28;20476;-77
2023/05/25 10:40:13;;;;;;;7.90;3.17;;;;;;;;;;5070444;28;20028;-78
2023/05/25 10:42:40;;;;;;;6.38;2.60;;;;;;;;;;5070129;28;20028;-78
2023/05/25 10:45:07;;;;;;;9.80;2.83;;;;;;;;;;5069708;28;20465;-77
2023/05/25 10:47:37;;;;;;;7.63;2.85;;;;;;;;;;5069656;28;20035;-78
2023/05/25 10:50:03;;;;;;;8.80;2.80;;;;;;;;;;5069918;28;20036;-77
2023/05/25 10:52:30;;;;;;;8.55;2.90;;;;;;;;;;5069219;28;20032;-80
2023/05/25 10:54:57;;;;;;;8.27;2.85;;;;;;;;;;5068766;28;20555;-79
2023/05/25 10:57:24;;;;;;;7.45;2.80;;;;;;;;;;5070065;28;20031;-79
2023/05/25 10:59:53;;;;;;;6.10;2.60;;;;;;;;;;5069760;28;20024;-78
2023/05/25 11:02:22;;;;;;;10.85;3.28;;;;;;;;;;5069562;28;20522;-79
2023/05/25 11:04:49;;;;;;;6.30;2.70;;;;;;;;;;5069251;28;20123;-77
2023/05/25 11:07:17;;;;;;;7.18;2.90;;;;;;;;;;5069216;28;20089;-79
2023/05/25 11:09:54;;;;;;;10.10;2.90;;;;;;;;;;5069857;28;20730;-79
2023/05/25 11:12:20;;;;;;;6.85;2.90;;;;;;;;;;5069627;28;20514;-80
2023/05/25 11:15:10;;;;;;;7.05;2.80;;;;;;;;;;5069218;28;20029;-77
2023/05/25 11:17:45;;;;;;;6.53;2.80;;;;;;;;;;5069352;28;20036;-78
2023/05/25 11:20:22;;;;;;;7.57;3.03;;;;;;;;;;5069503;28;20103;-80
2023/05/25 11:22:50;;;;;;;8.00;2.88;;;;;;;;;;5068788;28;20028;-77
2023/05/25 11:25:34;;;;;;;8.07;2.80;;;;;;;;;;5069355;28;20021;-79
2023/05/25 11:28:07;;;;;;;12.95;2.97;;;;;;;;;;5069142;28;20170;-79
2023/05/25 11:30:33;;;;;;;5.35;2.92;;;;;;;;;;5069675;28;20024;-77
2023/05/25 11:33:02;;;;;;;6.38;2.75;;;;;;;;;;5074208;28;20028;-77
2023/05/25 11:35:32;;;;;;;6.72;2.60;;;;;;;;;;5089286;28;20081;-79
2023/05/25 11:37:59;;;;;;;7.80;2.97;;;;;;;;;;5088954;28;20031;-77
2023/05/25 11:40:28;;;;;;;5.65;2.80;;;;;;;;;;5089247;28;20031;-80
2023/05/25 11:42:55;;;;;;;8.63;3.10;;;;;;;;;;5089155;28;20053;-80
2023/05/25 11:45:22;;;;;;;6.70;2.72;;;;;;;;;;5089036;28;20054;-80
2023/05/25 11:47:47;;;;;;;7.13;3.58;;;;;;;;;;5088992;28;20077;-80
2023/05/25 11:50:16;;;;;;;7.38;3.00;;;;;;;;;;5087979;28;20107;-80
2023/05/25 11:52:41;;;;;;;10.45;3.10;;;;;;;;;;5088828;28;20055;-80
2023/05/25 11:55:13;;;;;;;5.13;2.80;;;;;;;;;;5088835;28;20633;-80
2023/05/25 11:57:39;;;;;;;6.40;2.80;;;;;;;;;;5089017;28;20035;-80
2023/05/25 12:00:05;;;;;;;9.55;2.92;;;;;;;;;;5089162;28;20024;-80
2023/05/25 12:02:37;;;;;;;6.72;2.63;;;;;;;;;;5089076;28;20016;-80
2023/05/25 12:05:03;;;;;;;7.65;3.08;;;;;;;;;;5087933;28;20624;-80
2023/05/25 12:07:30;;;;;;;6.55;3.15;;;;;;;;;;5088445;28;20134;-79
2023/05/25 12:10:09;;;;;;;10.55;2.80;;;;;;;;;;5088697;28;20406;-77
2023/05/25 12:12:49;;;;;;;10.48;2.70;;;;;;;;;;5088741;28;20111;-79
2023/05/25 12:15:23;;;;;;;7.47;2.95;;;;;;;;;;5088378;28;20031;-79
2023/05/25 12:17:49;;;;;;;5.03;2.65;;;;;;;;;;5088356;28;20594;-79
2023/05/25 12:20:15;;;;;;;6.60;2.67;;;;;;;;;;5088968;28;20028;-77
2023/05/25 12:22:42;;;;;;;7.00;2.92;;;;;;;;;;5088434;28;20072;-77
2023/05/25 12:25:09;;;;;;;7.13;2.80;;;;;;;;;;5088363;28;20112;-78
2023/05/25 12:27:35;;;;;;;9.15;3.20;;;;;;;;;;5088698;28;20608;-78
2023/05/25 12:30:02;;;;;;;7.32;3.00;;;;;;;;;;5088524;28;20024;-77
2023/05/25 12:32:28;;;;;;;9.32;3.03;;;;;;;;;;5088407;28;20028;-77
2023/05/25 12:35:06;;;;;;;6.63;2.60;;;;;;;;;;5088140;28;20020;-79
2023/05/25 12:37:33;;;;;;;6.78;3.38;;;;;;;;;;5086885;28;20024;-79
2023/05/25 12:39:58;;;;;;;5.15;3.10;;;;;;;;;;5088538;28;20092;-80
2023/05/25 12:42:29;;;;;;;10.88;3.50;;;;;;;;;;5088716;28;20035;-77
2023/05/25 12:45:00;;;;;;;6.28;2.90;;;;;;;;;;5087695;28;20032;-77
2023/05/25 12:47:27;;;;;;;7.68;2.83;;;;;;;;;;5088126;28;20039;-77
2023/05/25 12:50:13;;;;;;;7.30;2.90;;;;;;;;;;5088124;28;20523;-78
2023/05/25 12:52:43;;;;;;;7.63;2.85;;;;;;;;;;5088069;28;20028;-79
2023/05/25 12:55:26;;;;;;;7.07;2.93;;;;;;;;;;5087972;28;20024;-77
2023/05/25 12:58:00;;;;;;;7.15;2.78;;;;;;;;;;5088454;28;20266;-79
2023/05/25 13:00:33;;;;;;;6.07;2.75;;;;;;;;;;5088294;28;20024;-79
2023/05/25 13:02:59;;;;;;;7.55;2.88;;;;;;;;;;5088324;28;20107;-80
2023/05/25 13:05:26;;;;;;;7.07;2.55;;;;;;;;;;5087738;28;20139;-78
2023/05/25 13:07:53;;;;;;;6.22;2.80;;;;;;;;;;5087593;28;20031;-79
2023/05/25 13:10:22;;;;;;;6.30;2.50;;;;;;;;;;5088214;28;20043;-79
2023/05/25 13:12:48;;;;;;;6.57;2.90;;;;;;;;;;5088207;28;20456;-79
2023/05/25 13:15:17;;;;;;;8.45;3.10;;;;;;;;;;5088079;28;20103;-77
2023/05/25 13:17:43;;;;;;;9.35;2.80;;;;;;;;;;5092128;28;20621;-79
2023/05/25 13:20:15;;;;;;;6.65;2.75;;;;;;;;;;5090553;28;20032;-77
2023/05/25 13:22:43;;;;;;;4.70;2.50;;;;;;;;;;5091518;28;20026;-79
2023/05/25 13:25:10;;;;;;;8.35;2.88;;;;;;;;;;5091440;28;20099;-80
2023/05/25 13:27:40;;;;;;;8.02;2.78;;;;;;;;;;5090482;28;20126;-79
2023/05/25 13:30:06;;;;;;;8.17;2.60;;;;;;;;;;5091658;28;20054;-78
2023/05/25 13:32:33;;;;;;;11.00;3.10;;;;;;;;;;5091821;28;20020;-77
2023/05/25 13:34:59;;;;;;;8.88;2.85;;;;;;;;;;5091420;28;20032;-80
2023/05/25 13:37:27;;;;;;;6.78;2.70;;;;;;;;;;5091318;28;20083;-78
2023/05/25 13:39:53;;;;;;;5.90;2.58;;;;;;;;;;5091440;28;20034;-78
2023/05/25 13:42:19;;;;;;;6.95;2.50;;;;;;;;;;5091551;28;20107;-80
2023/05/25 13:44:45;;;;;;;6.70;2.80;;;;;;;;;;5090793;28;20112;-77
2023/05/25 13:47:10;;;;;;;5.82;2.70;;;;;;;;;;5090384;28;20662;-77
2023/05/25 13:49:35;;;;;;;8.13;3.25;;;;;;;;;;5091405;28;20024;-84
2023/05/25 13:52:01;;;;;;;6.03;2.70;;;;;;;;;;5089985;28;20123;-81
2023/05/25 13:54:26;;;;;;;5.72;2.80;;;;;;;;;;5091343;28;20028;-81
2023/05/25 13:56:52;;;;;;;9.32;2.85;;;;;;;;;;5091106;28;20028;-79
2023/05/25 13:59:17;;;;;;;8.43;2.90;;;;;;;;;;5089484;28;20039;-77
2023/05/25 14:01:42;;;;;;;6.80;2.92;;;;;;;;;;5091128;28;20407;-77
2023/05/25 14:04:08;;;;;;;8.18;3.03;;;;;;;;;;5090529;28;20047;-79
2023/05/25 14:06:34;;;;;;;10.02;2.83;;;;;;;;;;5090582;28;20020;-80
2023/05/25 14:08:59;;;;;;;4.72;2.60;;;;;;;;;;5091096;28;20040;-78
2023/05/25 14:11:25;;;;;;;8.10;2.88;;;;;;;;;;5091230;28;20024;-80
2023/05/25 14:13:51;;;;;;;6.72;2.88;;;;;;;;;;5091007;28;20027;-79
2023/05/25 14:16:16;;;;;;;5.50;2.60;;;;;;;;;;5087977;28;20024;-78
2023/05/25 14:18:42;;;;;;;7.47;2.92;;;;;;;;;;5091737;28;20107;-82
2023/05/25 14:21:07;;;;;;;6.40;2.85;;;;;;;;;;5091087;28;20046;-77
2023/05/25 14:23:32;;;;;;;5.93;2.80;;;;;;;;;;5094098;28;20069;-74
2023/05/25 14:25:58;;;;;;;5.38;2.90;;;;;;;;;;5094616;28;20024;-76
2023/05/25 14:28:23;;;;;;;7.05;2.70;;;;;;;;;;5090030;28;20089;-79
2023/05/25 14:30:50;;;;;;;9.40;3.03;;;;;;;;;;5090705;28;20028;-82
2023/05/25 14:33:16;;;;;;;4.85;2.50;;;;;;;;;;5093161;28;20020;-81